sensor_id;sensor_type;location;lat;lon;timestamp;pressure;altitude;pressure_sealevel;temperature;humidity
38197;BME280;26543;51.976;4.616;2022-11-20T00:00:08;53340.59;;;-140.72;100.00
38197;BME280;26543;51.976;4.616;2022-11-20T00:02:34;53385.25;;;-140.72;100.00
38197;BME280;26543;51.976;4.616;2022-11-20T00:04:59;53364.97;;;-140.72;100.00
38197;BME280;26543;51.976;4.616;2022-11-20T00:07:25;53354.81;;;-140.72;100.00
38197;BME280;26543;51.976;4.616;2022-11-20T00:09:50;53344.66;;;-140.72;100.00
38197;BME280;26543;51.976;4.616;2022-11-20T00:12:15;53352.78;;;-140.72;100.00
38197;BME280;26543;51.976;4.616;2022-11-20T00:14:41;53375.09;;;-140.72;100.00
38197;BME280;26543;51.976;4.616;2022-11-20T00:17:06;53354.81;;;-140.72;100.00
38197;BME280;26543;51.976;4.616;2022-11-20T00:19:32;53385.25;;;-140.72;100.00
38197;BME280;26543;51.976;4.616;2022-11-20T00:21:59;53397.44;;;-140.72;100.00
38197;BME280;26543;51.976;4.616;2022-11-20T00:24:27;53377.13;;;-140.72;100.00
38197;BME280;26543;51.976;4.616;2022-11-20T00:26:52;53342.63;;;-140.72;100.00
38197;BME280;26543;51.976;4.616;2022-11-20T00:29:17;53354.81;;;-140.72;100.00
38197;BME280;26543;51.976;4.616;2022-11-20T00:31:43;53369.00;;;-140.72;100.00
38197;BME280;26543;51.976;4.616;2022-11-20T00:34:10;53358.88;;;-140.72;100.00
38197;BME280;26543;51.976;4.616;2022-11-20T00:36:35;53358.88;;;-140.72;100.00
38197;BME280;26543;51.976;4.616;2022-11-20T00:39:02;53391.34;;;-140.72;100.00
38197;BME280;26543;51.976;4.616;2022-11-20T00:41:28;53358.88;;;-140.72;100.00
38197;BME280;26543;51.976;4.616;2022-11-20T00:43:55;53340.59;;;-140.72;100.00
38197;BME280;26543;51.976;4.616;2022-11-20T00:46:25;53397.44;;;-140.72;100.00
38197;BME280;26543;51.976;4.616;2022-11-20T00:48:50;53389.31;;;-140.72;100.00
38197;BME280;26543;51.976;4.616;2022-11-20T00:51:21;53385.25;;;-140.72;100.00
38197;BME280;26543;51.976;4.616;2022-11-20T00:53:47;53387.28;;;-140.72;100.00
38197;BME280;26543;51.976;4.616;2022-11-20T00:56:15;53393.38;;;-140.72;100.00
38197;BME280;26543;51.976;4.616;2022-11-20T00:58:43;53367.00;;;-140.72;100.00
38197;BME280;26543;51.976;4.616;2022-11-20T01:01:17;53364.97;;;-140.72;100.00
38197;BME280;26543;51.976;4.616;2022-11-20T01:03:47;53373.06;;;-140.72;100.00
38197;BME280;26543;51.976;4.616;2022-11-20T01:06:18;53375.09;;;-140.72;100.00
38197;BME280;26543;51.976;4.616;2022-11-20T01:08:44;53352.78;;;-140.72;100.00
38197;BME280;26543;51.976;4.616;2022-11-20T01:11:12;53377.13;;;-140.72;100.00
38197;BME280;26543;51.976;4.616;2022-11-20T01:13:38;53413.66;;;-140.72;100.00
38197;BME280;26543;51.976;4.616;2022-11-20T01:18:52;53375.09;;;-140.72;100.00
38197;BME280;26543;51.976;4.616;2022-11-20T01:21:20;53381.19;;;-140.72;100.00
38197;BME280;26543;51.976;4.616;2022-11-20T01:23:47;53383.22;;;-140.72;100.00
38197;BME280;26543;51.976;4.616;2022-11-20T01:26:24;53367.00;;;-140.72;100.00
38197;BME280;26543;51.976;4.616;2022-11-20T01:28:50;53364.97;;;-140.72;100.00
38197;BME280;26543;51.976;4.616;2022-11-20T01:31:20;53336.53;;;-140.72;100.00
38197;BME280;26543;51.976;4.616;2022-11-20T01:33:48;53344.66;;;-140.72;100.00
38197;BME280;26543;51.976;4.616;2022-11-20T01:36:17;53352.78;;;-140.72;100.00
38197;BME280;26543;51.976;4.616;2022-11-20T01:38:46;53354.81;;;-140.72;100.00
38197;BME280;26543;51.976;4.616;2022-11-20T01:41:13;53421.78;;;-140.72;100.00
38197;BME280;26543;51.976;4.616;2022-11-20T01:43:59;53389.31;;;-140.72;100.00
38197;BME280;26543;51.976;4.616;2022-11-20T01:46:25;53316.25;;;-140.72;100.00
38197;BME280;26543;51.976;4.616;2022-11-20T01:52:08;53328.41;;;-140.72;100.00
38197;BME280;26543;51.976;4.616;2022-11-20T01:54:47;53383.22;;;-140.72;100.00
38197;BME280;26543;51.976;4.616;2022-11-20T01:57:15;53383.22;;;-140.72;100.00
38197;BME280;26543;51.976;4.616;2022-11-20T01:59:47;53385.25;;;-140.72;100.00
38197;BME280;26543;51.976;4.616;2022-11-20T02:02:15;53324.38;;;-140.72;100.00
38197;BME280;26543;51.976;4.616;2022-11-20T02:04:42;53364.97;;;-140.72;100.00
38197;BME280;26543;51.976;4.616;2022-11-20T02:07:07;53352.78;;;-140.72;100.00
38197;BME280;26543;51.976;4.616;2022-11-20T02:09:33;53364.97;;;-140.72;100.00
38197;BME280;26543;51.976;4.616;2022-11-20T02:11:59;53334.50;;;-140.72;100.00
38197;BME280;26543;51.976;4.616;2022-11-20T02:14:25;53391.34;;;-140.72;100.00
38197;BME280;26543;51.976;4.616;2022-11-20T02:16:50;53338.56;;;-140.72;100.00
38197;BME280;26543;51.976;4.616;2022-11-20T02:19:24;53356.84;;;-140.72;100.00
38197;BME280;26543;51.976;4.616;2022-11-20T02:21:56;53312.19;;;-140.72;100.00
38197;BME280;26543;51.976;4.616;2022-11-20T02:24:24;53364.97;;;-140.72;100.00
38197;BME280;26543;51.976;4.616;2022-11-20T02:26:53;53340.59;;;-140.72;100.00
38197;BME280;26543;51.976;4.616;2022-11-20T02:29:46;53397.44;;;-140.72;100.00
38197;BME280;26543;51.976;4.616;2022-11-20T02:32:24;53340.59;;;-140.72;100.00
38197;BME280;26543;51.976;4.616;2022-11-20T02:34:50;53364.97;;;-140.72;100.00
38197;BME280;26543;51.976;4.616;2022-11-20T02:37:16;53401.50;;;-140.72;100.00
38197;BME280;26543;51.976;4.616;2022-11-20T02:39:44;53401.50;;;-140.72;100.00
38197;BME280;26543;51.976;4.616;2022-11-20T02:42:12;53373.06;;;-140.72;100.00
38197;BME280;26543;51.976;4.616;2022-11-20T02:44:40;53375.09;;;-140.72;100.00
38197;BME280;26543;51.976;4.616;2022-11-20T02:47:07;53397.44;;;-140.72;100.00
38197;BME280;26543;51.976;4.616;2022-11-20T02:49:32;53377.13;;;-140.72;100.00
38197;BME280;26543;51.976;4.616;2022-11-20T02:51:58;53356.84;;;-140.72;100.00
38197;BME280;26543;51.976;4.616;2022-11-20T02:54:24;53364.97;;;-140.72;100.00
38197;BME280;26543;51.976;4.616;2022-11-20T02:56:50;53401.50;;;-140.72;100.00
38197;BME280;26543;51.976;4.616;2022-11-20T02:59:15;53403.53;;;-140.72;100.00
38197;BME280;26543;51.976;4.616;2022-11-20T03:01:40;53397.44;;;-140.72;100.00
38197;BME280;26543;51.976;4.616;2022-11-20T03:04:06;53379.16;;;-140.72;100.00
38197;BME280;26543;51.976;4.616;2022-11-20T03:06:34;53389.31;;;-140.72;100.00
38197;BME280;26543;51.976;4.616;2022-11-20T03:09:07;53389.31;;;-140.72;100.00
38197;BME280;26543;51.976;4.616;2022-11-20T03:11:32;53377.13;;;-140.72;100.00
38197;BME280;26543;51.976;4.616;2022-11-20T03:14:01;53362.94;;;-140.72;100.00
38197;BME280;26543;51.976;4.616;2022-11-20T03:16:27;53364.97;;;-140.72;100.00
38197;BME280;26543;51.976;4.616;2022-11-20T03:18:52;53379.16;;;-140.72;100.00
38197;BME280;26543;51.976;4.616;2022-11-20T03:21:18;53358.88;;;-140.72;100.00
38197;BME280;26543;51.976;4.616;2022-11-20T03:23:52;53373.06;;;-140.72;100.00
38197;BME280;26543;51.976;4.616;2022-11-20T03:26:19;53391.34;;;-140.72;100.00
38197;BME280;26543;51.976;4.616;2022-11-20T03:28:49;53405.56;;;-140.72;100.00
38197;BME280;26543;51.976;4.616;2022-11-20T03:31:16;53405.56;;;-140.72;100.00
38197;BME280;26543;51.976;4.616;2022-11-20T03:33:45;53381.19;;;-140.72;100.00
38197;BME280;26543;51.976;4.616;2022-11-20T03:36:13;53411.63;;;-140.72;100.00
38197;BME280;26543;51.976;4.616;2022-11-20T03:38:39;53393.38;;;-140.72;100.00
38197;BME280;26543;51.976;4.616;2022-11-20T03:41:12;53409.59;;;-140.72;100.00
38197;BME280;26543;51.976;4.616;2022-11-20T03:43:38;53379.16;;;-140.72;100.00
38197;BME280;26543;51.976;4.616;2022-11-20T03:46:07;53389.31;;;-140.72;100.00
38197;BME280;26543;51.976;4.616;2022-11-20T03:48:32;53407.56;;;-140.72;100.00
38197;BME280;26543;51.976;4.616;2022-11-20T03:51:12;53407.56;;;-140.72;100.00
38197;BME280;26543;51.976;4.616;2022-11-20T03:53:40;53391.34;;;-140.72;100.00
38197;BME280;26543;51.976;4.616;2022-11-20T03:56:07;53421.78;;;-140.72;100.00
38197;BME280;26543;51.976;4.616;2022-11-20T03:58:37;53346.69;;;-140.72;100.00
38197;BME280;26543;51.976;4.616;2022-11-20T04:01:09;53409.59;;;-140.72;100.00
38197;BME280;26543;51.976;4.616;2022-11-20T04:03:36;53411.63;;;-140.72;100.00
38197;BME280;26543;51.976;4.616;2022-11-20T04:06:10;53409.59;;;-140.72;100.00
38197;BME280;26543;51.976;4.616;2022-11-20T04:08:36;53389.31;;;-140.72;100.00
38197;BME280;26543;51.976;4.616;2022-11-20T04:11:17;53409.59;;;-140.72;100.00
38197;BME280;26543;51.976;4.616;2022-11-20T04:13:47;53397.44;;;-140.72;100.00
38197;BME280;26543;51.976;4.616;2022-11-20T04:16:13;53375.09;;;-140.72;100.00
38197;BME280;26543;51.976;4.616;2022-11-20T04:18:38;53385.25;;;-140.72;100.00
38197;BME280;26543;51.976;4.616;2022-11-20T04:21:05;53393.38;;;-140.72;100.00
38197;BME280;26543;51.976;4.616;2022-11-20T04:23:32;53405.56;;;-140.72;100.00
38197;BME280;26543;51.976;4.616;2022-11-20T04:26:08;53377.13;;;-140.72;100.00
38197;BME280;26543;51.976;4.616;2022-11-20T04:28:34;53405.56;;;-140.72;100.00
38197;BME280;26543;51.976;4.616;2022-11-20T04:31:08;53409.59;;;-140.72;100.00
38197;BME280;26543;51.976;4.616;2022-11-20T04:33:43;53405.56;;;-140.72;100.00
38197;BME280;26543;51.976;4.616;2022-11-20T04:36:16;53415.69;;;-140.72;100.00
38197;BME280;26543;51.976;4.616;2022-11-20T04:38:57;53409.59;;;-140.72;100.00
38197;BME280;26543;51.976;4.616;2022-11-20T04:41:25;53381.19;;;-140.72;100.00
38197;BME280;26543;51.976;4.616;2022-11-20T04:43:53;53401.50;;;-140.72;100.00
38197;BME280;26543;51.976;4.616;2022-11-20T04:46:24;53397.44;;;-140.72;100.00
38197;BME280;26543;51.976;4.616;2022-11-20T04:48:49;53364.97;;;-140.72;100.00
38197;BME280;26543;51.976;4.616;2022-11-20T04:51:15;53397.44;;;-140.72;100.00
38197;BME280;26543;51.976;4.616;2022-11-20T04:53:42;53381.19;;;-140.72;100.00
38197;BME280;26543;51.976;4.616;2022-11-20T04:56:08;53393.38;;;-140.72;100.00
38197;BME280;26543;51.976;4.616;2022-11-20T04:58:35;53360.91;;;-140.72;100.00
38197;BME280;26543;51.976;4.616;2022-11-20T05:03:31;53373.06;;;-140.72;100.00
38197;BME280;26543;51.976;4.616;2022-11-20T05:05:59;53438.03;;;-140.72;100.00
38197;BME280;26543;51.976;4.616;2022-11-20T05:08:24;53405.56;;;-140.72;100.00
38197;BME280;26543;51.976;4.616;2022-11-20T05:10:50;53393.38;;;-140.72;100.00
38197;BME280;26543;51.976;4.616;2022-11-20T05:13:15;53399.47;;;-140.72;100.00
38197;BME280;26543;51.976;4.616;2022-11-20T05:15:41;53385.25;;;-140.72;100.00
38197;BME280;26543;51.976;4.616;2022-11-20T05:18:06;53340.59;;;-140.72;100.00
38197;BME280;26543;51.976;4.616;2022-11-20T05:20:32;53379.16;;;-140.72;100.00
38197;BME280;26543;51.976;4.616;2022-11-20T05:22:57;53364.97;;;-140.72;100.00
38197;BME280;26543;51.976;4.616;2022-11-20T05:25:26;53389.31;;;-140.72;100.00
38197;BME280;26543;51.976;4.616;2022-11-20T05:27:56;53405.56;;;-140.72;100.00
38197;BME280;26543;51.976;4.616;2022-11-20T05:30:22;53373.06;;;-140.72;100.00
38197;BME280;26543;51.976;4.616;2022-11-20T05:32:47;53431.94;;;-140.72;100.00
38197;BME280;26543;51.976;4.616;2022-11-20T05:35:12;53379.16;;;-140.72;100.00
38197;BME280;26543;51.976;4.616;2022-11-20T05:37:43;53381.19;;;-140.72;100.00
38197;BME280;26543;51.976;4.616;2022-11-20T05:40:09;53409.59;;;-140.72;100.00
38197;BME280;26543;51.976;4.616;2022-11-20T05:42:37;53364.97;;;-140.72;100.00
38197;BME280;26543;51.976;4.616;2022-11-20T05:45:04;53403.53;;;-140.72;100.00
38197;BME280;26543;51.976;4.616;2022-11-20T05:47:33;53367.00;;;-140.72;100.00
38197;BME280;26543;51.976;4.616;2022-11-20T05:49:59;53364.97;;;-140.72;100.00
38197;BME280;26543;51.976;4.616;2022-11-20T05:52:29;53381.19;;;-140.72;100.00
38197;BME280;26543;51.976;4.616;2022-11-20T05:54:55;53373.06;;;-140.72;100.00
38197;BME280;26543;51.976;4.616;2022-11-20T05:57:20;53423.81;;;-140.72;100.00
38197;BME280;26543;51.976;4.616;2022-11-20T05:59:46;53391.34;;;-140.72;100.00
38197;BME280;26543;51.976;4.616;2022-11-20T06:02:11;53405.56;;;-140.72;100.00
38197;BME280;26543;51.976;4.616;2022-11-20T06:04:37;53387.28;;;-140.72;100.00
38197;BME280;26543;51.976;4.616;2022-11-20T06:07:02;53395.41;;;-140.72;100.00
38197;BME280;26543;51.976;4.616;2022-11-20T06:09:27;53419.75;;;-140.72;100.00
38197;BME280;26543;51.976;4.616;2022-11-20T06:11:54;53405.56;;;-140.72;100.00
38197;BME280;26543;51.976;4.616;2022-11-20T06:14:19;53373.06;;;-140.72;100.00
38197;BME280;26543;51.976;4.616;2022-11-20T06:16:45;53391.34;;;-140.72;100.00
38197;BME280;26543;51.976;4.616;2022-11-20T06:19:10;53367.00;;;-140.72;100.00
38197;BME280;26543;51.976;4.616;2022-11-20T06:21:35;53377.13;;;-140.72;100.00
38197;BME280;26543;51.976;4.616;2022-11-20T06:24:02;53377.13;;;-140.72;100.00
38197;BME280;26543;51.976;4.616;2022-11-20T06:26:28;53387.28;;;-140.72;100.00
38197;BME280;26543;51.976;4.616;2022-11-20T06:28:54;53409.59;;;-140.72;100.00
38197;BME280;26543;51.976;4.616;2022-11-20T06:31:23;53377.13;;;-140.72;100.00
38197;BME280;26543;51.976;4.616;2022-11-20T06:33:49;53344.66;;;-140.72;100.00
38197;BME280;26543;51.976;4.616;2022-11-20T06:36:16;53377.13;;;-140.72;100.00
38197;BME280;26543;51.976;4.616;2022-11-20T06:38:42;53377.13;;;-140.72;100.00
38197;BME280;26543;51.976;4.616;2022-11-20T06:41:16;53369.00;;;-140.72;100.00
38197;BME280;26543;51.976;4.616;2022-11-20T06:43:42;53360.91;;;-140.72;100.00
38197;BME280;26543;51.976;4.616;2022-11-20T06:46:09;53409.59;;;-140.72;100.00
38197;BME280;26543;51.976;4.616;2022-11-20T06:48:35;53389.31;;;-140.72;100.00
38197;BME280;26543;51.976;4.616;2022-11-20T06:51:03;53407.56;;;-140.72;100.00
38197;BME280;26543;51.976;4.616;2022-11-20T06:53:29;53413.66;;;-140.72;100.00
38197;BME280;26543;51.976;4.616;2022-11-20T06:55:56;53383.22;;;-140.72;100.00
38197;BME280;26543;51.976;4.616;2022-11-20T06:58:22;53397.44;;;-140.72;100.00
38197;BME280;26543;51.976;4.616;2022-11-20T07:01:04;53383.22;;;-140.72;100.00
38197;BME280;26543;51.976;4.616;2022-11-20T07:03:30;53383.22;;;-140.72;100.00
38197;BME280;26543;51.976;4.616;2022-11-20T07:05:56;53379.16;;;-140.72;100.00
38197;BME280;26543;51.976;4.616;2022-11-20T07:08:24;53354.81;;;-140.72;100.00
38197;BME280;26543;51.976;4.616;2022-11-20T07:10:49;53383.22;;;-140.72;100.00
38197;BME280;26543;51.976;4.616;2022-11-20T07:13:17;53356.84;;;-140.72;100.00
38197;BME280;26543;51.976;4.616;2022-11-20T07:15:42;53342.63;;;-140.72;100.00
38197;BME280;26543;51.976;4.616;2022-11-20T07:18:08;53340.59;;;-140.72;100.00
38197;BME280;26543;51.976;4.616;2022-11-20T07:20:33;53362.94;;;-140.72;100.00
38197;BME280;26543;51.976;4.616;2022-11-20T07:23:01;53389.31;;;-140.72;100.00
38197;BME280;26543;51.976;4.616;2022-11-20T07:25:27;53362.94;;;-140.72;100.00
38197;BME280;26543;51.976;4.616;2022-11-20T07:27:56;53401.50;;;-140.72;100.00
38197;BME280;26543;51.976;4.616;2022-11-20T07:30:25;53393.38;;;-140.72;100.00
38197;BME280;26543;51.976;4.616;2022-11-20T07:32:51;53346.69;;;-140.72;100.00
38197;BME280;26543;51.976;4.616;2022-11-20T07:35:17;53312.19;;;-140.72;100.00
38197;BME280;26543;51.976;4.616;2022-11-20T07:37:42;53362.94;;;-140.72;100.00
38197;BME280;26543;51.976;4.616;2022-11-20T07:40:08;53342.63;;;-140.72;100.00
38197;BME280;26543;51.976;4.616;2022-11-20T07:42:34;53340.59;;;-140.72;100.00
38197;BME280;26543;51.976;4.616;2022-11-20T07:45:03;53387.28;;;-140.72;100.00
38197;BME280;26543;51.976;4.616;2022-11-20T07:47:28;53364.97;;;-140.72;100.00
38197;BME280;26543;51.976;4.616;2022-11-20T07:49:54;53332.47;;;-140.72;100.00
38197;BME280;26543;51.976;4.616;2022-11-20T07:52:19;53336.53;;;-140.72;100.00
38197;BME280;26543;51.976;4.616;2022-11-20T07:54:45;53364.97;;;-140.72;100.00
38197;BME280;26543;51.976;4.616;2022-11-20T07:57:13;53344.66;;;-140.72;100.00
38197;BME280;26543;51.976;4.616;2022-11-20T07:59:39;53340.59;;;-140.72;100.00
38197;BME280;26543;51.976;4.616;2022-11-20T08:02:04;53322.34;;;-140.72;100.00
38197;BME280;26543;51.976;4.616;2022-11-20T08:04:30;53332.47;;;-140.72;100.00
38197;BME280;26543;51.976;4.616;2022-11-20T08:06:57;53350.75;;;-140.72;100.00
38197;BME280;26543;51.976;4.616;2022-11-20T08:09:22;53385.25;;;-140.72;100.00
38197;BME280;26543;51.976;4.616;2022-11-20T08:11:48;53328.41;;;-140.72;100.00
38197;BME280;26543;51.976;4.616;2022-11-20T08:14:32;53342.63;;;-140.72;100.00
38197;BME280;26543;51.976;4.616;2022-11-20T08:16:57;53377.13;;;-140.72;100.00
38197;BME280;26543;51.976;4.616;2022-11-20T08:19:22;53344.66;;;-140.72;100.00
38197;BME280;26543;51.976;4.616;2022-11-20T08:21:48;53344.66;;;-140.72;100.00
38197;BME280;26543;51.976;4.616;2022-11-20T08:37:50;53328.41;;;-140.72;100.00
38197;BME280;26543;51.976;4.616;2022-11-20T08:40:16;53308.13;;;-140.72;100.00
38197;BME280;26543;51.976;4.616;2022-11-20T08:42:49;53304.06;;;-140.72;100.00
38197;BME280;26543;51.976;4.616;2022-11-20T08:45:15;53352.78;;;-140.72;100.00
38197;BME280;26543;51.976;4.616;2022-11-20T08:47:41;53350.75;;;-140.72;100.00
38197;BME280;26543;51.976;4.616;2022-11-20T08:50:08;53344.66;;;-140.72;100.00
38197;BME280;26543;51.976;4.616;2022-11-20T08:52:34;53316.25;;;-140.72;100.00
38197;BME280;26543;51.976;4.616;2022-11-20T08:55:00;53348.72;;;-140.72;100.00
38197;BME280;26543;51.976;4.616;2022-11-20T08:57:26;53306.09;;;-140.72;100.00
38197;BME280;26543;51.976;4.616;2022-11-20T08:59:51;53324.38;;;-140.72;100.00
38197;BME280;26543;51.976;4.616;2022-11-20T09:02:16;53336.53;;;-140.72;100.00
38197;BME280;26543;51.976;4.616;2022-11-20T09:04:42;53314.22;;;-140.72;100.00
38197;BME280;26543;51.976;4.616;2022-11-20T09:07:07;53269.56;;;-140.72;100.00
38197;BME280;26543;51.976;4.616;2022-11-20T09:09:32;53312.19;;;-140.72;100.00
38197;BME280;26543;51.976;4.616;2022-11-20T09:11:58;53314.22;;;-140.72;100.00
38197;BME280;26543;51.976;4.616;2022-11-20T09:14:24;53312.19;;;-140.72;100.00
38197;BME280;26543;51.976;4.616;2022-11-20T09:16:54;53277.69;;;-140.72;100.00
38197;BME280;26543;51.976;4.616;2022-11-20T09:19:23;53291.88;;;-140.72;100.00
38197;BME280;26543;51.976;4.616;2022-11-20T09:21:51;53316.25;;;-140.72;100.00
38197;BME280;26543;51.976;4.616;2022-11-20T09:24:16;53314.22;;;-140.72;100.00
38197;BME280;26543;51.976;4.616;2022-11-20T09:26:42;53291.88;;;-140.72;100.00
38197;BME280;26543;51.976;4.616;2022-11-20T09:29:07;53275.66;;;-140.72;100.00
38197;BME280;26543;51.976;4.616;2022-11-20T09:31:32;53310.16;;;-140.72;100.00
38197;BME280;26543;51.976;4.616;2022-11-20T09:33:58;53320.31;;;-140.72;100.00
38197;BME280;26543;51.976;4.616;2022-11-20T09:36:23;53291.88;;;-140.72;100.00
38197;BME280;26543;51.976;4.616;2022-11-20T09:38:49;53291.88;;;-140.72;100.00
38197;BME280;26543;51.976;4.616;2022-11-20T09:47:12;53304.06;;;-140.72;100.00
38197;BME280;26543;51.976;4.616;2022-11-20T09:50:26;53247.25;;;-140.72;100.00
38197;BME280;26543;51.976;4.616;2022-11-20T09:55:37;53243.19;;;-140.72;100.00
38197;BME280;26543;51.976;4.616;2022-11-20T09:58:06;53255.34;;;-140.72;100.00
38197;BME280;26543;51.976;4.616;2022-11-20T10:00:34;53261.44;;;-140.72;100.00
38197;BME280;26543;51.976;4.616;2022-11-20T10:03:06;53279.72;;;-140.72;100.00
38197;BME280;26543;51.976;4.616;2022-11-20T10:05:45;53283.78;;;-140.72;100.00
38197;BME280;26543;51.976;4.616;2022-11-20T10:08:29;53316.25;;;-140.72;100.00
38197;BME280;26543;51.976;4.616;2022-11-20T10:11:15;53259.41;;;-140.72;100.00
38197;BME280;26543;51.976;4.616;2022-11-20T10:19:42;53263.47;;;-140.72;100.00
38197;BME280;26543;51.976;4.616;2022-11-20T10:22:21;53267.53;;;-140.72;100.00
38197;BME280;26543;51.976;4.616;2022-11-20T10:24:57;53277.69;;;-140.72;100.00
38197;BME280;26543;51.976;4.616;2022-11-20T10:27:36;53239.13;;;-140.72;100.00
38197;BME280;26543;51.976;4.616;2022-11-20T10:30:12;53271.59;;;-140.72;100.00
38197;BME280;26543;51.976;4.616;2022-11-20T10:32:41;53222.88;;;-140.72;100.00
38197;BME280;26543;51.976;4.616;2022-11-20T10:37:44;53271.59;;;-140.72;100.00
38197;BME280;26543;51.976;4.616;2022-11-20T10:43:12;53261.44;;;-140.72;100.00
38197;BME280;26543;51.976;4.616;2022-11-20T10:45:58;53245.22;;;-140.72;100.00
38197;BME280;26543;51.976;4.616;2022-11-20T10:48:27;53275.66;;;-140.72;100.00
38197;BME280;26543;51.976;4.616;2022-11-20T10:53:54;53283.78;;;-140.72;100.00
38197;BME280;26543;51.976;4.616;2022-11-20T10:56:30;53297.97;;;-140.72;100.00
38197;BME280;26543;51.976;4.616;2022-11-20T11:01:55;53263.47;;;-140.72;100.00
38197;BME280;26543;51.976;4.616;2022-11-20T11:04:40;53283.78;;;-140.72;100.00
38197;BME280;26543;51.976;4.616;2022-11-20T11:07:17;53267.53;;;-140.72;100.00
38197;BME280;26543;51.976;4.616;2022-11-20T11:09:51;53310.16;;;-140.72;100.00
38197;BME280;26543;51.976;4.616;2022-11-20T11:12:21;53231.00;;;-140.72;100.00
38197;BME280;26543;51.976;4.616;2022-11-20T11:14:54;53233.03;;;-140.72;100.00
38197;BME280;26543;51.976;4.616;2022-11-20T11:17:27;53261.44;;;-140.72;100.00
38197;BME280;26543;51.976;4.616;2022-11-20T11:19:58;53255.34;;;-140.72;100.00
38197;BME280;26543;51.976;4.616;2022-11-20T11:22:23;53316.25;;;-140.72;100.00
38197;BME280;26543;51.976;4.616;2022-11-20T11:24:52;53245.22;;;-140.72;100.00
38197;BME280;26543;51.976;4.616;2022-11-20T11:27:18;53261.44;;;-140.72;100.00
38197;BME280;26543;51.976;4.616;2022-11-20T11:29:44;53247.25;;;-140.72;100.00
38197;BME280;26543;51.976;4.616;2022-11-20T11:32:21;53293.91;;;-140.72;100.00
38197;BME280;26543;51.976;4.616;2022-11-20T11:35:11;53247.25;;;-140.72;100.00
38197;BME280;26543;51.976;4.616;2022-11-20T11:37:47;53245.22;;;-140.72;100.00
38197;BME280;26543;51.976;4.616;2022-11-20T11:40:17;53231.00;;;-140.72;100.00
38197;BME280;26543;51.976;4.616;2022-11-20T11:42:44;53277.69;;;-140.72;100.00
38197;BME280;26543;51.976;4.616;2022-11-20T11:45:14;53233.03;;;-140.72;100.00
38197;BME280;26543;51.976;4.616;2022-11-20T11:55:20;53233.03;;;-140.72;100.00
38197;BME280;26543;51.976;4.616;2022-11-20T11:58:19;53231.00;;;-140.72;100.00
38197;BME280;26543;51.976;4.616;2022-11-20T12:01:10;53174.19;;;-140.72;100.00
38197;BME280;26543;51.976;4.616;2022-11-20T12:03:44;53241.16;;;-140.72;100.00
38197;BME280;26543;51.976;4.616;2022-11-20T12:06:16;53237.09;;;-140.72;100.00
38197;BME280;26543;51.976;4.616;2022-11-20T12:09:04;53263.47;;;-140.72;100.00
38197;BME280;26543;51.976;4.616;2022-11-20T12:14:01;53208.69;;;-140.72;100.00
38197;BME280;26543;51.976;4.616;2022-11-20T12:16:30;53300.00;;;-140.72;100.00
38197;BME280;26543;51.976;4.616;2022-11-20T12:18:59;53261.44;;;-140.72;100.00
38197;BME280;26543;51.976;4.616;2022-11-20T12:21:36;53224.91;;;-140.72;100.00
38197;BME280;26543;51.976;4.616;2022-11-20T12:30:14;53212.75;;;-140.72;100.00
38197;BME280;26543;51.976;4.616;2022-11-20T12:38:11;53297.97;;;-140.72;100.00
38197;BME280;26543;51.976;4.616;2022-11-20T12:41:05;53243.19;;;-140.72;100.00
38197;BME280;26543;51.976;4.616;2022-11-20T12:43:58;53267.53;;;-140.72;100.00
38197;BME280;26543;51.976;4.616;2022-11-20T12:47:06;53255.34;;;-140.72;100.00
38197;BME280;26543;51.976;4.616;2022-11-20T12:50:36;53218.81;;;-140.72;100.00
38197;BME280;26543;51.976;4.616;2022-11-20T12:58:00;53259.41;;;-140.72;100.00
38197;BME280;26543;51.976;4.616;2022-11-20T13:00:31;53271.59;;;-140.72;100.00
38197;BME280;26543;51.976;4.616;2022-11-20T13:04:00;53249.28;;;-140.72;100.00
38197;BME280;26543;51.976;4.616;2022-11-20T13:06:19;53267.53;;;-140.72;100.00
38197;BME280;26543;51.976;4.616;2022-11-20T13:08:55;53228.97;;;-140.72;100.00
38197;BME280;26543;51.976;4.616;2022-11-20T13:19:20;53253.31;;;-140.72;100.00
38197;BME280;26543;51.976;4.616;2022-11-20T13:21:48;53235.06;;;-140.72;100.00
38197;BME280;26543;51.976;4.616;2022-11-20T13:24:26;53235.06;;;-140.72;100.00
38197;BME280;26543;51.976;4.616;2022-11-20T13:29:31;53249.28;;;-140.72;100.00
38197;BME280;26543;51.976;4.616;2022-11-20T13:32:18;53231.00;;;-140.72;100.00
38197;BME280;26543;51.976;4.616;2022-11-20T13:34:56;53259.41;;;-140.72;100.00
38197;BME280;26543;51.976;4.616;2022-11-20T13:37:28;53265.50;;;-140.72;100.00
38197;BME280;26543;51.976;4.616;2022-11-20T13:42:37;53265.50;;;-140.72;100.00
38197;BME280;26543;51.976;4.616;2022-11-20T13:45:11;53269.56;;;-140.72;100.00
38197;BME280;26543;51.976;4.616;2022-11-20T13:47:37;53228.97;;;-140.72;100.00
38197;BME280;26543;51.976;4.616;2022-11-20T13:50:04;53243.19;;;-140.72;100.00
38197;BME280;26543;51.976;4.616;2022-11-20T13:52:49;53214.78;;;-140.72;100.00
38197;BME280;26543;51.976;4.616;2022-11-20T13:59:02;53265.50;;;-140.72;100.00
38197;BME280;26543;51.976;4.616;2022-11-20T14:01:31;53275.66;;;-140.72;100.00
38197;BME280;26543;51.976;4.616;2022-11-20T14:03:57;53295.94;;;-140.72;100.00
38197;BME280;26543;51.976;4.616;2022-11-20T14:06:27;53265.50;;;-140.72;100.00
38197;BME280;26543;51.976;4.616;2022-11-20T14:08:54;53249.28;;;-140.72;100.00
38197;BME280;26543;51.976;4.616;2022-11-20T14:11:22;53253.31;;;-140.72;100.00
38197;BME280;26543;51.976;4.616;2022-11-20T14:16:28;53279.72;;;-140.72;100.00